createdAt,value
2018-04-02T00:00:48.814Z,6.12
2018-04-02T00:01:49.593Z,6.22
2018-04-02T00:02:50.371Z,6.16
2018-04-02T00:03:51.150Z,6.16
2018-04-02T00:04:51.902Z,6.20
2018-04-02T00:05:52.676Z,6.14
2018-04-02T00:06:53.432Z,6.12
2018-04-02T00:07:54.209Z,6.12
2018-04-02T00:08:55.007Z,6.11
2018-04-02T00:09:55.746Z,6.24
2018-04-02T00:10:56.495Z,6.12
2018-04-02T00:11:57.249Z,6.19
2018-04-02T00:12:58.001Z,6.14
2018-04-02T00:13:58.773Z,6.24
2018-04-02T00:14:59.525Z,6.16
2018-04-02T00:16:00.280Z,6.22
2018-04-02T00:17:01.031Z,6.14
2018-04-02T00:18:01.790Z,6.09
2018-04-02T00:19:02.537Z,6.12
2018-04-02T00:20:03.311Z,6.16
2018-04-02T00:21:04.074Z,6.16
2018-04-02T00:22:04.848Z,6.14
2018-04-02T00:23:05.623Z,6.14
2018-04-02T00:24:06.381Z,6.20
2018-04-02T00:25:07.153Z,6.16
2018-04-02T00:26:07.923Z,6.11
2018-04-02T00:27:08.673Z,6.17
2018-04-02T00:28:09.681Z,6.09
2018-04-02T00:29:10.437Z,6.14
2018-04-02T00:30:11.188Z,6.22
2018-04-02T00:31:11.953Z,6.12
2018-04-02T00:32:12.744Z,6.12
2018-04-02T00:33:13.499Z,6.12
2018-04-02T00:34:14.255Z,6.07
2018-04-02T00:35:15.025Z,6.16
2018-04-02T00:36:15.803Z,6.08
2018-04-02T00:37:16.559Z,6.11
2018-04-02T00:38:17.335Z,6.02
2018-04-02T00:39:18.098Z,6.09
2018-04-02T00:40:18.853Z,6.09
2018-04-02T00:41:19.617Z,6.11
2018-04-02T00:42:20.372Z,6.16
2018-04-02T00:43:21.125Z,6.14
2018-04-02T00:44:21.882Z,6.11
2018-04-02T00:45:22.655Z,6.19
2018-04-02T00:46:23.410Z,6.14
2018-04-02T00:47:24.186Z,6.09
2018-04-02T00:48:24.965Z,6.17
2018-04-02T00:49:25.721Z,6.20
2018-04-02T00:50:26.476Z,6.12
2018-04-02T00:51:27.251Z,6.11
2018-04-02T00:52:28.010Z,6.16
2018-04-02T00:53:28.779Z,6.09
2018-04-02T00:54:29.544Z,6.22
2018-04-02T00:55:30.299Z,6.11
2018-04-02T00:56:31.053Z,6.11
2018-04-02T00:57:31.805Z,6.12
2018-04-02T00:58:32.563Z,6.14
2018-04-02T00:59:33.318Z,6.24
2018-04-02T01:00:34.073Z,6.19
2018-04-02T01:01:34.850Z,6.12
2018-04-02T01:02:35.628Z,6.24
2018-04-02T01:03:36.387Z,6.07
2018-04-02T01:04:37.140Z,6.24
2018-04-02T01:05:37.891Z,6.20
2018-04-02T01:06:38.664Z,6.16
2018-04-02T01:07:39.421Z,6.19
2018-04-02T01:08:40.176Z,6.17
2018-04-02T01:09:40.929Z,6.19
2018-04-02T01:10:41.684Z,6.24
2018-04-02T01:11:42.460Z,6.28
2018-04-02T01:12:43.237Z,6.30
2018-04-02T01:13:44.015Z,6.16
2018-04-02T01:14:44.773Z,6.17
2018-04-02T01:15:45.542Z,6.16
2018-04-02T01:16:46.328Z,6.20
2018-04-02T01:17:47.081Z,6.19
2018-04-02T01:18:47.834Z,6.26
2018-04-02T01:19:48.588Z,6.26
2018-04-02T01:20:49.344Z,6.16
2018-04-02T01:21:50.101Z,6.24
2018-04-02T01:22:50.849Z,6.22
2018-04-02T01:23:51.603Z,6.19
2018-04-02T01:24:52.353Z,6.28
2018-04-02T01:25:53.106Z,6.24
2018-04-02T01:26:53.856Z,6.17
2018-04-02T01:27:54.608Z,6.17
2018-04-02T01:28:55.361Z,6.07
2018-04-02T01:29:56.115Z,6.05
2018-04-02T01:30:56.896Z,6.12
2018-04-02T01:31:57.652Z,6.05
2018-04-02T01:32:58.425Z,6.02
2018-04-02T01:33:59.207Z,5.97
2018-04-02T01:34:59.967Z,5.98
2018-04-02T01:36:00.736Z,5.89
2018-04-02T01:37:01.488Z,5.94
2018-04-02T01:38:02.267Z,5.84
2018-04-02T01:39:03.020Z,5.86
2018-04-02T01:40:03.798Z,5.87
2018-04-02T01:41:04.547Z,5.84
2018-04-02T01:42:05.329Z,5.82
2018-04-02T01:43:06.079Z,5.82
2018-04-02T01:44:06.852Z,5.80
2018-04-02T01:45:07.606Z,5.75
2018-04-02T01:46:08.355Z,5.83
2018-04-02T01:47:09.108Z,5.80
2018-04-02T01:48:09.862Z,5.76
2018-04-02T01:49:10.620Z,5.93
2018-04-02T01:50:11.376Z,5.83
2018-04-02T01:51:12.130Z,5.87
2018-04-02T01:52:12.887Z,5.80
2018-04-02T01:53:13.639Z,5.93
2018-04-02T01:54:14.415Z,5.87
2018-04-02T01:55:15.174Z,5.90
2018-04-02T01:56:15.928Z,5.94
2018-04-02T01:57:16.679Z,5.93
2018-04-02T01:58:17.438Z,5.94
2018-04-02T01:59:18.213Z,5.91
2018-04-02T02:00:18.972Z,5.98
2018-04-02T02:01:19.748Z,5.98
2018-04-02T02:02:20.524Z,6.05
2018-04-02T02:03:21.278Z,6.04
2018-04-02T02:04:22.036Z,6.04
2018-04-02T02:05:22.787Z,6.05
2018-04-02T02:06:23.546Z,6.08
2018-04-02T02:07:24.321Z,6.14
2018-04-02T02:08:25.098Z,6.05
2018-04-02T02:09:25.850Z,6.12
2018-04-02T02:10:26.600Z,6.08
2018-04-02T02:11:27.353Z,6.09
2018-04-02T02:12:28.129Z,6.04
2018-04-02T02:13:28.895Z,6.14
2018-04-02T02:14:29.642Z,6.19
2018-04-02T02:15:30.392Z,6.16
2018-04-02T02:16:31.147Z,6.20
2018-04-02T02:17:31.906Z,6.09
2018-04-02T02:18:32.680Z,6.16
2018-04-02T02:19:33.465Z,6.16
2018-04-02T02:20:34.235Z,6.20
2018-04-02T02:21:34.988Z,6.22
2018-04-02T02:22:35.738Z,6.16
2018-04-02T02:23:36.492Z,6.20
2018-04-02T02:24:37.248Z,6.22
2018-04-02T02:25:38.002Z,6.19
2018-04-02T02:26:38.778Z,6.16
2018-04-02T02:27:39.529Z,6.20
2018-04-02T02:28:40.308Z,6.07
2018-04-02T02:29:41.065Z,6.11
2018-04-02T02:30:41.825Z,6.08
2018-04-02T02:31:42.578Z,6.22
2018-04-02T02:32:43.348Z,6.09
2018-04-02T02:33:44.112Z,6.17
2018-04-02T02:34:44.867Z,6.07
2018-04-02T02:35:45.620Z,6.05
2018-04-02T02:36:46.399Z,6.09
2018-04-02T02:37:47.148Z,6.02
2018-04-02T02:38:47.928Z,6.07
2018-04-02T02:39:48.679Z,6.04
2018-04-02T02:40:49.441Z,6.08
2018-04-02T02:41:50.218Z,6.01
2018-04-02T02:42:50.978Z,6.07
2018-04-02T02:43:51.734Z,5.98
2018-04-02T02:44:52.512Z,5.99
2018-04-02T02:45:53.263Z,5.99
2018-04-02T02:46:54.368Z,6.01
2018-04-02T02:47:55.197Z,5.93
2018-04-02T02:48:55.950Z,5.99
2018-04-02T02:49:56.703Z,5.99
2018-04-02T02:50:57.454Z,5.94
2018-04-02T02:51:58.204Z,5.87
2018-04-02T02:52:58.982Z,5.97
2018-04-02T02:53:59.737Z,5.89
2018-04-02T02:55:00.491Z,5.97
2018-04-02T02:56:01.248Z,5.86
2018-04-02T02:57:01.999Z,5.86
2018-04-02T02:58:03.007Z,5.93
2018-04-02T02:59:03.785Z,5.79
2018-04-02T03:00:04.570Z,5.73
2018-04-02T03:01:05.342Z,5.73
2018-04-02T03:02:06.101Z,5.72
2018-04-02T03:03:06.856Z,5.79
2018-04-02T03:04:07.634Z,5.73
2018-04-02T03:05:08.383Z,5.71
2018-04-02T03:06:09.166Z,5.73
2018-04-02T03:07:09.949Z,5.79
2018-04-02T03:08:10.726Z,5.71
2018-04-02T03:09:11.478Z,5.66
2018-04-02T03:10:12.260Z,5.75
2018-04-02T03:11:13.034Z,5.71
2018-04-02T03:12:13.791Z,5.64
2018-04-02T03:13:14.566Z,5.66
2018-04-02T03:14:15.341Z,5.68
2018-04-02T03:15:16.118Z,5.62
2018-04-02T03:16:16.898Z,5.59
2018-04-02T03:17:17.675Z,5.57
2018-04-02T03:18:18.451Z,5.56
2018-04-02T03:19:19.234Z,5.59
2018-04-02T03:20:19.982Z,5.65
2018-04-02T03:21:20.762Z,5.64
2018-04-02T03:22:21.513Z,5.65
2018-04-02T03:23:22.268Z,5.71
2018-04-02T03:24:23.011Z,5.69
2018-04-02T03:25:23.798Z,5.71
2018-04-02T03:26:24.576Z,5.65
2018-04-02T03:27:25.336Z,5.61
2018-04-02T03:28:26.090Z,5.71
2018-04-02T03:29:26.865Z,5.71
2018-04-02T03:30:27.644Z,5.65
2018-04-02T03:31:28.396Z,5.64
2018-04-02T03:32:29.152Z,5.68
2018-04-02T03:33:29.931Z,5.68
2018-04-02T03:34:30.681Z,5.65
2018-04-02T03:35:31.440Z,5.69
2018-04-02T03:36:32.191Z,5.66
2018-04-02T03:37:32.947Z,5.73
2018-04-02T03:38:33.704Z,5.71
2018-04-02T03:39:34.438Z,5.68
2018-04-02T03:40:35.173Z,5.75
2018-04-02T03:41:35.894Z,5.65
2018-04-02T03:42:36.661Z,5.69
2018-04-02T03:43:37.392Z,5.75
2018-04-02T03:44:38.125Z,5.73
2018-04-02T03:45:38.858Z,5.71
2018-04-02T03:46:39.594Z,5.71
2018-04-02T03:47:40.329Z,5.66
2018-04-02T03:48:41.061Z,5.75
2018-04-02T03:49:41.794Z,5.68
2018-04-02T03:50:42.528Z,5.68
2018-04-02T03:51:43.260Z,5.69
2018-04-02T03:52:43.990Z,5.71
2018-04-02T03:53:44.730Z,5.71
2018-04-02T03:54:45.461Z,5.71
2018-04-02T03:55:46.195Z,5.72
2018-04-02T03:56:46.928Z,5.71
2018-04-02T03:57:47.658Z,5.69
2018-04-02T03:58:48.391Z,5.69
2018-04-02T03:59:49.121Z,5.73
2018-04-02T04:00:49.855Z,5.72
2018-04-02T04:01:50.584Z,5.71
2018-04-02T04:02:51.317Z,5.69
2018-04-02T04:03:52.046Z,5.69
2018-04-02T04:04:52.783Z,5.68
2018-04-02T04:05:53.523Z,5.68
2018-04-02T04:06:54.255Z,5.65
2018-04-02T04:07:54.979Z,5.64
2018-04-02T04:08:55.710Z,5.65
2018-04-02T04:09:56.443Z,5.62
2018-04-02T04:10:57.169Z,5.62
2018-04-02T04:11:57.903Z,5.56
2018-04-02T04:12:58.632Z,5.56
2018-04-02T04:13:59.363Z,5.56
2018-04-02T04:15:00.094Z,5.61
2018-04-02T04:16:00.827Z,5.56
2018-04-02T04:17:01.558Z,5.64
2018-04-02T04:18:02.290Z,5.51
2018-04-02T04:19:03.018Z,5.48
2018-04-02T04:20:03.749Z,5.47
2018-04-02T04:21:04.477Z,5.50
2018-04-02T04:22:05.207Z,5.47
2018-04-02T04:23:05.936Z,5.44
2018-04-02T04:24:06.669Z,5.46
2018-04-02T04:25:07.396Z,5.46
2018-04-02T04:26:08.125Z,5.41
2018-04-02T04:27:08.861Z,5.36
2018-04-02T04:28:09.586Z,5.32
2018-04-02T04:29:10.316Z,5.33
2018-04-02T04:30:11.046Z,5.38
2018-04-02T04:31:11.773Z,5.38
2018-04-02T04:32:12.505Z,5.46
2018-04-02T04:33:13.231Z,5.43
2018-04-02T04:34:13.962Z,5.44
2018-04-02T04:35:14.690Z,5.36
2018-04-02T04:36:15.422Z,5.38
2018-04-02T04:37:16.149Z,5.35
2018-04-02T04:38:16.880Z,5.36
2018-04-02T04:39:17.610Z,5.39
2018-04-02T04:40:18.377Z,5.41
2018-04-02T04:41:19.076Z,5.41
2018-04-02T04:42:19.807Z,5.39
2018-04-02T04:43:20.537Z,5.38
2018-04-02T04:44:21.266Z,5.35
2018-04-02T04:45:22.000Z,5.38
2018-04-02T04:46:22.726Z,5.38
2018-04-02T04:47:23.460Z,5.29
2018-04-02T04:48:24.191Z,5.35
2018-04-02T04:49:24.925Z,5.41
2018-04-02T04:50:25.654Z,5.35
2018-04-02T04:51:26.395Z,5.33
2018-04-02T04:52:27.125Z,5.36
2018-04-02T04:53:27.856Z,5.35
2018-04-02T04:54:28.590Z,5.44
2018-04-02T04:55:29.323Z,5.43
2018-04-02T04:56:30.052Z,5.41
2018-04-02T04:57:30.783Z,5.43
2018-04-02T04:58:31.516Z,5.48
2018-04-02T04:59:32.245Z,5.48
2018-04-02T05:00:32.985Z,5.36
2018-04-02T05:01:33.717Z,5.36
2018-04-02T05:02:34.447Z,5.36
2018-04-02T05:03:35.180Z,5.36
2018-04-02T05:04:35.912Z,5.39
2018-04-02T05:05:36.643Z,5.39
2018-04-02T05:06:37.374Z,5.36
2018-04-02T05:07:38.105Z,5.33
2018-04-02T05:08:38.853Z,5.41
2018-04-02T05:09:39.583Z,5.41
2018-04-02T05:10:40.321Z,5.35
2018-04-02T05:11:41.050Z,5.39
2018-04-02T05:12:41.781Z,5.35
2018-04-02T05:13:42.516Z,5.38
2018-04-02T05:14:43.248Z,5.35
2018-04-02T05:15:43.985Z,5.28
2018-04-02T05:16:44.716Z,5.18
2018-04-02T05:17:45.460Z,5.15
2018-04-02T05:18:46.184Z,5.15
2018-04-02T05:19:46.918Z,5.18
2018-04-02T05:20:47.650Z,5.15
2018-04-02T05:21:48.378Z,5.18
2018-04-02T05:22:49.178Z,5.10
2018-04-02T05:23:49.856Z,5.07
2018-04-02T05:24:50.590Z,5.14
2018-04-02T05:25:51.324Z,5.07
2018-04-02T05:26:52.068Z,5.12
2018-04-02T05:27:52.800Z,5.08
2018-04-02T05:28:53.542Z,5.08
2018-04-02T05:29:54.276Z,5.11
2018-04-02T05:30:55.053Z,5.07
2018-04-02T05:31:55.743Z,5.14
2018-04-02T05:32:56.484Z,5.14
2018-04-02T05:33:57.211Z,5.18
2018-04-02T05:34:57.952Z,5.14
2018-04-02T05:35:58.678Z,5.15
2018-04-02T05:36:59.419Z,5.20
2018-04-02T05:38:00.155Z,5.26
2018-04-02T05:39:00.888Z,5.20
2018-04-02T05:40:01.617Z,5.15
2018-04-02T05:41:02.376Z,5.23
2018-04-02T05:42:03.097Z,5.17
2018-04-02T05:43:03.833Z,5.21
2018-04-02T05:44:04.566Z,5.26
2018-04-02T05:45:05.326Z,5.21
2018-04-02T05:46:06.077Z,5.17
2018-04-02T05:47:06.809Z,5.23
2018-04-02T05:48:07.545Z,5.26
2018-04-02T05:49:08.277Z,5.28
2018-04-02T05:50:09.015Z,5.29
2018-04-02T05:51:09.748Z,5.30
2018-04-02T05:52:10.484Z,5.29
2018-04-02T05:53:11.221Z,5.26
2018-04-02T05:54:11.959Z,5.35
2018-04-02T05:55:12.693Z,5.41
2018-04-02T05:56:13.428Z,5.35
2018-04-02T05:57:14.167Z,5.35
2018-04-02T05:58:14.900Z,5.36
2018-04-02T05:59:15.635Z,5.39
2018-04-02T06:00:16.372Z,5.35
2018-04-02T06:01:17.112Z,5.44
2018-04-02T06:02:17.847Z,5.46
2018-04-02T06:03:18.581Z,5.47
2018-04-02T06:04:19.357Z,5.41
2018-04-02T06:05:20.143Z,5.48
2018-04-02T06:06:20.877Z,5.48
2018-04-02T06:07:21.613Z,5.56
2018-04-02T06:08:22.352Z,5.48
2018-04-02T06:09:23.087Z,5.64
2018-04-02T06:10:23.823Z,5.57
2018-04-02T06:11:24.559Z,5.54
2018-04-02T06:12:25.295Z,5.57
2018-04-02T06:13:26.039Z,5.56
2018-04-02T06:14:26.782Z,5.62
2018-04-02T06:15:27.508Z,5.64
2018-04-02T06:16:28.246Z,5.59
2018-04-02T06:17:28.983Z,5.62
2018-04-02T06:18:29.719Z,5.64
2018-04-02T06:19:30.456Z,5.65
2018-04-02T06:20:31.212Z,5.69
2018-04-02T06:21:31.931Z,5.69
2018-04-02T06:22:32.667Z,5.72
2018-04-02T06:23:33.403Z,5.66
2018-04-02T06:24:34.142Z,5.75
2018-04-02T06:25:34.879Z,5.82
2018-04-02T06:26:35.622Z,5.76
2018-04-02T06:27:36.357Z,5.73
2018-04-02T06:28:37.102Z,5.73
2018-04-02T06:29:37.830Z,5.73
2018-04-02T06:30:38.564Z,5.79
2018-04-02T06:31:39.336Z,5.86
2018-04-02T06:32:40.039Z,5.90
2018-04-02T06:33:40.777Z,5.90
2018-04-02T06:34:41.519Z,5.86
2018-04-02T06:35:42.259Z,5.86
2018-04-02T06:36:42.993Z,5.82
2018-04-02T06:37:43.732Z,5.83
2018-04-02T06:38:44.468Z,5.87
2018-04-02T06:39:45.207Z,5.98
2018-04-02T06:40:45.983Z,5.91
2018-04-02T06:41:46.721Z,5.91
2018-04-02T06:42:47.457Z,6.01
2018-04-02T06:43:48.199Z,6.02
2018-04-02T06:44:48.935Z,6.07
2018-04-02T06:45:49.673Z,6.07
2018-04-02T06:46:50.410Z,6.04
2018-04-02T06:47:51.157Z,6.04
2018-04-02T06:48:51.896Z,6.09
2018-04-02T06:49:52.635Z,6.07
2018-04-02T06:50:53.376Z,6.07
2018-04-02T06:51:54.120Z,6.07
2018-04-02T06:52:54.902Z,6.08
2018-04-02T06:53:55.593Z,6.09
2018-04-02T06:54:56.333Z,6.16
2018-04-02T06:55:57.070Z,6.11
2018-04-02T06:56:57.810Z,6.11
2018-04-02T06:57:58.548Z,6.20
2018-04-02T06:58:59.286Z,6.16
2018-04-02T07:00:00.029Z,6.19
2018-04-02T07:01:00.763Z,6.19
2018-04-02T07:02:01.507Z,6.22
2018-04-02T07:03:02.238Z,6.20
2018-04-02T07:04:02.978Z,6.09
2018-04-02T07:05:03.716Z,6.19
2018-04-02T07:06:04.455Z,6.16
2018-04-02T07:07:05.196Z,6.24
2018-04-02T07:08:05.931Z,6.31
2018-04-02T07:09:06.667Z,6.24
2018-04-02T07:10:07.413Z,6.36
2018-04-02T07:11:08.152Z,6.41
2018-04-02T07:12:08.892Z,6.39
2018-04-02T07:13:09.631Z,6.36
2018-04-02T07:14:10.369Z,6.41
2018-04-02T07:15:11.106Z,6.39
2018-04-02T07:16:11.846Z,6.52
2018-04-02T07:17:12.587Z,6.52
2018-04-02T07:18:13.325Z,6.57
2018-04-02T07:19:14.066Z,6.66
2018-04-02T07:20:14.803Z,6.60
2018-04-02T07:21:15.541Z,6.64
2018-04-02T07:22:16.275Z,6.59
2018-04-02T07:23:17.019Z,6.56
2018-04-02T07:24:17.753Z,6.57
2018-04-02T07:25:18.494Z,6.64
2018-04-02T07:26:19.231Z,6.69
2018-04-02T07:27:19.967Z,6.69
2018-04-02T07:28:20.704Z,6.62
2018-04-02T07:29:21.443Z,6.64
2018-04-02T07:30:22.218Z,6.57
2018-04-02T07:31:22.957Z,6.64
2018-04-02T07:32:23.694Z,6.51
2018-04-02T07:33:24.441Z,6.63
2018-04-02T07:34:25.176Z,6.57
2018-04-02T07:35:25.929Z,6.54
2018-04-02T07:36:26.664Z,6.59
2018-04-02T07:37:27.400Z,6.56
2018-04-02T07:38:28.184Z,6.59
2018-04-02T07:39:29.007Z,6.57
2018-04-02T07:40:29.843Z,6.72
2018-04-02T07:41:30.655Z,6.95
2018-04-02T07:42:31.474Z,7.10
2018-04-02T07:43:32.288Z,7.05
2018-04-02T07:44:33.101Z,7.40
2018-04-02T07:45:33.888Z,7.60
2018-04-02T07:46:34.660Z,7.75
2018-04-02T07:47:35.412Z,7.80
2018-04-02T07:48:36.150Z,7.88
2018-04-02T07:49:36.893Z,7.94
2018-04-02T07:50:37.673Z,7.98
2018-04-02T07:51:38.416Z,8.08
2018-04-02T07:52:39.218Z,8.00
2018-04-02T07:53:39.976Z,8.10
2018-04-02T07:54:40.739Z,8.03
2018-04-02T07:55:41.481Z,8.01
2018-04-02T07:56:42.239Z,8.03
2018-04-02T07:57:43.059Z,8.10
2018-04-02T07:58:43.810Z,7.94
2018-04-02T07:59:44.550Z,7.70
2018-04-02T08:00:45.337Z,7.58
2018-04-02T08:01:46.195Z,7.53
2018-04-02T08:02:47.015Z,7.53
2018-04-02T08:03:47.753Z,7.66
2018-04-02T08:04:48.548Z,7.67
2018-04-02T08:05:49.307Z,7.76
2018-04-02T08:06:50.091Z,8.03
2018-04-02T08:07:50.844Z,8.09
2018-04-02T08:08:51.614Z,8.13
2018-04-02T08:09:52.402Z,8.18
2018-04-02T08:10:53.189Z,8.49
2018-04-02T08:11:54.000Z,8.64
2018-04-02T08:12:54.815Z,8.71
2018-04-02T08:13:55.593Z,8.85
2018-04-02T08:14:56.459Z,8.66
2018-04-02T08:15:57.613Z,8.58
2018-04-02T08:16:58.631Z,8.63
2018-04-02T08:17:59.474Z,8.64
2018-04-02T08:19:00.208Z,8.78
2018-04-02T08:20:00.969Z,8.85
2018-04-02T08:21:01.710Z,9.10
2018-04-02T08:22:02.464Z,9.14
2018-04-02T08:23:03.216Z,9.25
2018-04-02T08:24:03.962Z,9.16
2018-04-02T08:25:04.700Z,9.00
2018-04-02T08:26:05.464Z,9.11
2018-04-02T08:27:06.230Z,8.99
2018-04-02T08:28:06.968Z,8.99
2018-04-02T08:29:07.712Z,8.84
2018-04-02T08:30:08.501Z,8.84
2018-04-02T08:31:09.269Z,8.88
2018-04-02T08:32:10.039Z,9.19
2018-04-02T08:33:10.773Z,9.32
2018-04-02T08:34:11.524Z,9.40
2018-04-02T08:35:12.271Z,9.62
2018-04-02T08:36:13.017Z,9.65
2018-04-02T08:37:13.762Z,9.66
2018-04-02T08:38:14.507Z,9.82
2018-04-02T08:39:15.250Z,9.76
2018-04-02T08:40:15.993Z,10.01
2018-04-02T08:41:16.739Z,9.80
2018-04-02T08:42:17.765Z,9.99
2018-04-02T08:43:18.480Z,9.99
2018-04-02T08:44:19.264Z,9.87
2018-04-02T08:45:19.974Z,9.79
2018-04-02T08:46:20.714Z,9.51
2018-04-02T08:47:21.458Z,9.69
2018-04-02T08:48:22.203Z,9.65
2018-04-02T08:49:22.945Z,9.51
2018-04-02T08:50:23.693Z,9.62
2018-04-02T08:51:24.433Z,9.51
2018-04-02T08:52:25.178Z,9.51
2018-04-02T08:53:25.922Z,9.40
2018-04-02T08:54:26.668Z,9.37
2018-04-02T08:55:27.409Z,9.36
2018-04-02T08:56:28.151Z,9.41
2018-04-02T08:57:28.907Z,9.46
2018-04-02T08:58:29.648Z,9.55
2018-04-02T08:59:30.389Z,9.31
2018-04-02T09:00:31.137Z,9.41
2018-04-02T09:01:31.878Z,9.28
2018-04-02T09:02:32.630Z,9.51
2018-04-02T09:03:33.371Z,9.54
2018-04-02T09:04:34.141Z,9.74
2018-04-02T09:05:34.866Z,9.84
2018-04-02T09:06:35.616Z,9.99
2018-04-02T09:07:36.355Z,9.80
2018-04-02T09:08:37.100Z,9.89
2018-04-02T09:09:37.842Z,9.89
2018-04-02T09:10:38.597Z,10.02
2018-04-02T09:11:39.343Z,10.01
2018-04-02T09:12:40.090Z,10.20
2018-04-02T09:13:40.834Z,10.25
2018-04-02T09:14:41.580Z,9.83
2018-04-02T09:15:42.320Z,9.74
2018-04-02T09:16:43.066Z,9.86
2018-04-02T09:17:43.809Z,9.94
2018-04-02T09:18:44.552Z,9.99
2018-04-02T09:19:45.297Z,10.35
2018-04-02T09:20:46.044Z,10.42
2018-04-02T09:21:46.788Z,10.40
2018-04-02T09:22:47.533Z,10.68
2018-04-02T09:23:48.276Z,10.79
2018-04-02T09:24:49.057Z,11.12
2018-04-02T09:25:49.776Z,11.10
2018-04-02T09:26:50.521Z,11.33
2018-04-02T09:27:51.268Z,11.26
2018-04-02T09:28:52.010Z,11.29
2018-04-02T09:29:52.759Z,11.07
2018-04-02T09:30:53.506Z,11.11
2018-04-02T09:31:54.248Z,11.12
2018-04-02T09:32:55.008Z,11.37
2018-04-02T09:33:55.751Z,11.50
2018-04-02T09:34:56.499Z,11.77
2018-04-02T09:35:57.243Z,12.07
2018-04-02T09:36:57.993Z,12.29
2018-04-02T09:37:58.794Z,12.13
2018-04-02T09:38:59.663Z,12.22
2018-04-02T09:40:00.448Z,12.32
2018-04-02T09:41:01.243Z,12.15
2018-04-02T09:42:01.986Z,12.13
2018-04-02T09:43:02.787Z,12.18
2018-04-02T09:44:03.625Z,11.95
2018-04-02T09:45:04.486Z,11.81
2018-04-02T09:46:05.333Z,11.55
2018-04-02T09:47:06.224Z,11.62
2018-04-02T09:48:07.322Z,11.41
2018-04-02T09:49:08.171Z,11.37
2018-04-02T09:50:08.975Z,11.14
2018-04-02T09:51:09.831Z,11.07
2018-04-02T09:52:10.641Z,11.37
2018-04-02T09:53:11.457Z,11.32
2018-04-02T09:54:12.599Z,11.32
2018-04-02T09:55:13.421Z,11.43
2018-04-02T09:56:14.256Z,11.44
2018-04-02T09:57:15.157Z,11.60
2018-04-02T09:58:15.976Z,11.51
2018-04-02T09:59:16.901Z,11.36
2018-04-02T10:00:17.684Z,11.30
2018-04-02T10:01:18.498Z,11.30
2018-04-02T10:02:19.384Z,11.30
2018-04-02T10:03:20.204Z,11.26
2018-04-02T10:04:21.041Z,11.02
2018-04-02T10:05:21.856Z,10.78
2018-04-02T10:06:22.727Z,10.68
2018-04-02T10:07:23.604Z,10.71
2018-04-02T10:08:24.436Z,10.54
2018-04-02T10:09:25.296Z,10.48
2018-04-02T10:10:26.156Z,10.48
2018-04-02T10:11:27.018Z,10.53
2018-04-02T10:12:27.829Z,10.40
2018-04-02T10:13:28.632Z,10.57
2018-04-02T10:14:29.486Z,10.67
2018-04-02T10:15:30.382Z,10.53
2018-04-02T10:16:31.222Z,10.63
2018-04-02T10:17:32.036Z,10.71
2018-04-02T10:18:32.872Z,10.63
2018-04-02T10:19:33.726Z,10.49
2018-04-02T10:20:34.532Z,10.60
2018-04-02T10:21:35.435Z,10.60
2018-04-02T10:22:36.267Z,10.68
2018-04-02T10:23:37.094Z,10.94
2018-04-02T10:24:37.912Z,11.12
2018-04-02T10:25:38.715Z,11.11
2018-04-02T10:26:39.636Z,11.43
2018-04-02T10:27:40.428Z,11.50
2018-04-02T10:28:41.249Z,11.86
2018-04-02T10:29:42.048Z,11.75
2018-04-02T10:30:42.904Z,11.84
2018-04-02T10:31:43.705Z,11.77
2018-04-02T10:32:44.500Z,11.91
2018-04-02T10:33:45.556Z,12.09
2018-04-02T10:34:46.310Z,12.15
2018-04-02T10:35:47.062Z,12.43
2018-04-02T10:36:47.946Z,12.32
2018-04-02T10:37:48.775Z,12.64
2018-04-02T10:38:49.590Z,12.76
2018-04-02T10:39:50.332Z,12.80
2018-04-02T10:40:51.084Z,12.72
2018-04-02T10:41:51.829Z,12.42
2018-04-02T10:42:52.578Z,12.87
2018-04-02T10:43:53.330Z,12.93
2018-04-02T10:44:54.087Z,12.62
2018-04-02T10:45:54.829Z,12.80
2018-04-02T10:46:55.580Z,12.91
2018-04-02T10:47:56.337Z,12.86
2018-04-02T10:48:57.083Z,12.94
2018-04-02T10:49:57.831Z,13.19
2018-04-02T10:50:58.576Z,12.75
2018-04-02T10:51:59.334Z,12.79
2018-04-02T10:53:00.080Z,12.95
2018-04-02T10:54:00.829Z,13.03
2018-04-02T10:55:01.583Z,13.04
2018-04-02T10:56:02.326Z,12.70
2018-04-02T10:57:03.076Z,12.53
2018-04-02T10:58:03.828Z,12.67
2018-04-02T10:59:04.567Z,12.55
2018-04-02T11:00:05.314Z,12.72
2018-04-02T11:01:06.063Z,13.00
2018-04-02T11:02:06.812Z,13.65
2018-04-02T11:03:07.557Z,14.18
2018-04-02T11:04:08.314Z,14.08
2018-04-02T11:05:09.063Z,13.68
2018-04-02T11:06:09.828Z,13.89
2018-04-02T11:07:10.573Z,14.04
2018-04-02T11:08:11.327Z,13.93
2018-04-02T11:09:12.073Z,13.79
2018-04-02T11:10:12.856Z,13.93
2018-04-02T11:11:13.591Z,13.57
2018-04-02T11:12:14.342Z,13.38
2018-04-02T11:13:15.089Z,13.35
2018-04-02T11:14:15.833Z,13.33
2018-04-02T11:15:16.589Z,13.74
2018-04-02T11:16:17.339Z,13.60
2018-04-02T11:17:18.087Z,13.00
2018-04-02T11:18:18.836Z,13.18
2018-04-02T11:19:19.583Z,12.98
2018-04-02T11:20:20.335Z,12.76
2018-04-02T11:21:21.074Z,12.80
2018-04-02T11:22:21.822Z,12.22
2018-04-02T11:23:22.567Z,12.15
2018-04-02T11:24:23.308Z,12.18
2018-04-02T11:25:24.064Z,12.06
2018-04-02T11:26:24.806Z,12.06
2018-04-02T11:27:25.547Z,11.73
2018-04-02T11:28:26.294Z,12.10
2018-04-02T11:29:27.035Z,11.86
2018-04-02T11:30:27.782Z,11.83
2018-04-02T11:31:28.527Z,11.78
2018-04-02T11:32:29.270Z,11.66
2018-04-02T11:33:30.014Z,11.59
2018-04-02T11:34:30.756Z,11.55
2018-04-02T11:35:31.500Z,11.86
2018-04-02T11:36:32.246Z,11.83
2018-04-02T11:37:33.022Z,11.80
2018-04-02T11:38:33.734Z,11.95
2018-04-02T11:39:34.475Z,12.04
2018-04-02T11:40:35.219Z,11.95
2018-04-02T11:41:35.959Z,11.81
2018-04-02T11:42:36.700Z,11.95
2018-04-02T11:43:37.452Z,11.69
2018-04-02T11:44:38.196Z,11.83
2018-04-02T11:45:38.936Z,11.75
2018-04-02T11:46:39.678Z,11.63
2018-04-02T11:47:40.417Z,11.57
2018-04-02T11:48:41.171Z,11.66
2018-04-02T11:49:41.900Z,11.52
2018-04-02T11:50:42.641Z,11.63
2018-04-02T11:51:43.380Z,11.72
2018-04-02T11:52:44.131Z,11.83
2018-04-02T11:53:44.873Z,11.84
2018-04-02T11:54:45.614Z,11.97
2018-04-02T11:55:46.355Z,11.86
2018-04-02T11:56:47.108Z,11.80
2018-04-02T11:57:47.850Z,11.80
2018-04-02T11:58:48.589Z,11.70
2018-04-02T11:59:49.331Z,11.66
2018-04-02T12:00:50.070Z,11.80
2018-04-02T12:01:50.812Z,11.87
2018-04-02T12:02:51.558Z,11.87
2018-04-02T12:03:52.297Z,11.97
2018-04-02T12:04:53.043Z,11.95
2018-04-02T12:05:53.783Z,11.97
2018-04-02T12:06:54.526Z,12.12
2018-04-02T12:07:55.265Z,12.09
2018-04-02T12:08:56.019Z,12.18
2018-04-02T12:09:56.763Z,12.06
2018-04-02T12:10:57.500Z,12.09
2018-04-02T12:11:58.241Z,12.06
2018-04-02T12:12:58.981Z,12.03
2018-04-02T12:13:59.720Z,12.15
2018-04-02T12:15:00.462Z,12.10
2018-04-02T12:16:01.207Z,12.13
2018-04-02T12:17:01.959Z,12.15
2018-04-02T12:18:02.689Z,12.09
2018-04-02T12:19:03.432Z,12.04
2018-04-02T12:20:04.175Z,12.06
2018-04-02T12:21:04.970Z,12.17
2018-04-02T12:22:05.660Z,12.20
2018-04-02T12:23:06.404Z,12.22
2018-04-02T12:24:07.151Z,12.36
2018-04-02T12:25:07.886Z,12.42
2018-04-02T12:26:08.636Z,12.53
2018-04-02T12:27:09.373Z,12.60
2018-04-02T12:28:10.116Z,12.49
2018-04-02T12:29:10.857Z,12.54
2018-04-02T12:30:11.601Z,12.53
2018-04-02T12:31:12.345Z,12.47
2018-04-02T12:32:13.085Z,12.43
2018-04-02T12:33:13.830Z,12.46
2018-04-02T12:34:14.573Z,12.64
2018-04-02T12:35:15.311Z,12.68
2018-04-02T12:36:16.050Z,12.75
2018-04-02T12:37:16.793Z,12.94
2018-04-02T12:38:17.534Z,12.90
2018-04-02T12:39:18.276Z,12.80
2018-04-02T12:40:19.018Z,12.91
2018-04-02T12:41:19.771Z,12.90
2018-04-02T12:42:20.513Z,12.98
2018-04-02T12:43:21.278Z,13.30
2018-04-02T12:44:22.052Z,13.38
2018-04-02T12:45:22.742Z,13.38
2018-04-02T12:46:23.487Z,13.37
2018-04-02T12:47:24.226Z,13.41
2018-04-02T12:48:25.008Z,13.28
2018-04-02T12:49:25.717Z,13.35
2018-04-02T12:50:26.458Z,13.46
2018-04-02T12:51:27.194Z,13.38
2018-04-02T12:52:27.949Z,13.30
2018-04-02T12:53:28.688Z,13.16
2018-04-02T12:54:29.434Z,13.12
2018-04-02T12:55:30.172Z,13.22
2018-04-02T12:56:30.912Z,13.37
2018-04-02T12:57:31.655Z,13.63
2018-04-02T12:58:32.394Z,13.63
2018-04-02T12:59:33.136Z,13.60
2018-04-02T13:00:33.879Z,13.49
2018-04-02T13:01:34.621Z,13.33
2018-04-02T13:02:35.364Z,13.30
2018-04-02T13:03:36.104Z,13.41
2018-04-02T13:04:36.868Z,13.04
2018-04-02T13:05:37.585Z,13.13
2018-04-02T13:06:38.336Z,13.01
2018-04-02T13:07:39.069Z,13.08
2018-04-02T13:08:39.815Z,13.08
2018-04-02T13:09:40.552Z,13.04
2018-04-02T13:10:41.386Z,13.03
2018-04-02T13:11:42.032Z,13.03
2018-04-02T13:12:42.773Z,13.11
2018-04-02T13:13:43.508Z,13.05
2018-04-02T13:14:44.261Z,13.15
2018-04-02T13:15:45.004Z,13.25
2018-04-02T13:16:45.773Z,13.13
2018-04-02T13:17:46.514Z,13.03
2018-04-02T13:18:47.251Z,12.97
2018-04-02T13:19:47.990Z,12.93
2018-04-02T13:20:48.730Z,12.83